リーブルヴィル の空港の天気 - METARとTAF

リーブルヴィル国際空港 ( FOOL / LBV ) - ガボン リーブルヴィル
飛行場実況気象(Metar)
観測時間08/11 08:00 WAT (08/11 07:00 UTC)
風向・風速南東 5m/s
視程8000m
天気現象
全天の4割程度の雲 雲底高度 370m
気温25℃
湿度83%
気圧1015hPa
METARFOOL 110700Z 14009KT 8000 SCT012 25/22 Q1015 NOSIG
過去の天気等 Google飛行場航空写真 Wunderground天気予報

過去48時間のMETAR

飛行場予報(TAF)
発表時間: 8/11 06:00 WAT (8/11 05:00 UTC)
予報対象時間: 11日7時 WAT ~ 12日13時 WAT
風向・風速南南東 5m/s
視程10km以上
全天の4割程度の雲 雲底高度 300m
全天の8割程度の雲 雲底高度 910m
TAF FOOL 110500Z 1106/1212 16010KT 9999 SCT010 BKN030